Portada
METAR-TAF:

METAR-TAF

Aeropuertos :

Base Aérea de Morón

Morón de la Frontera, España

latitud: 37-09N, longitud: 005-37W, altitud: 87 m

Observación

El informe se hizo hace 21 minutos, a las 12:00 UTC
Viento 12 kt del oeste-suroeste
Temperatura 24°C
Humedad 44%
Presión 1014 hPa
Visibilidad 10 km o más
Escasas nubes a una altura de 4900 ft

METAR: LEMO 261200Z 24012KT 9999 FEW049 24/11 Q1014 NOSIG

Hora: 14:21 (12:21 UTC)

Pronóstico

El informe se hizo hace 4 horas y 21 minutos, a las 08:00 UTC
Pronóstico válido del 26 a las 09 UTC al 27 a las 09 UTC
Viento 13 kt del oeste-suroeste
Visibilidad 10 km o más
Escasas nubes a una altura de 3500 ft
Evolucionando progresivamente
del 26 a las 21 UTC al 26 a las 23 UTC
Viento 7 kt del sur

TAF: LEMO 260800Z 2609/2709 24013KT 9999 FEW035 TX28/2615Z TN16/2706Z BECMG 2621/2623 18007KT

Observaciones y pronósticos meteorológicos de más de 4000 aeropuertos (mensajes METAR y TAF).

Los puntos amarillos y rojos representan las estaciones disponibles.

Ponga el ratón en el punto deseado para ver el nombre de la estación.

Haga clic para ver las observaciones y los pronósticos meteorológicos.

Para cambiar el mapa : haga clic en los botones verdes con una cruz de color negro para hacer un zoom, en el botón verde con un guión para alejar o en las flechas verdes para mapas adyacentes.


METAR-TAF: